sensor_id;sensor_type;location;lat;lon;timestamp;P1;durP1;ratioP1;P2;durP2;ratioP2
65461;SDS011;53236;43.666;18.444;2023-11-22T00:00:47;9.70;;;6.43;;
65461;SDS011;53236;43.666;18.444;2023-11-22T00:03:13;8.77;;;6.00;;
65461;SDS011;53236;43.666;18.444;2023-11-22T00:05:39;27.70;;;18.47;;
65461;SDS011;53236;43.666;18.444;2023-11-22T00:08:04;28.10;;;18.67;;
65461;SDS011;53236;43.666;18.444;2023-11-22T00:10:30;18.00;;;12.57;;
65461;SDS011;53236;43.666;18.444;2023-11-22T00:12:56;11.73;;;8.43;;
65461;SDS011;53236;43.666;18.444;2023-11-22T00:15:23;10.67;;;6.93;;
65461;SDS011;53236;43.666;18.444;2023-11-22T00:17:49;19.60;;;12.17;;
65461;SDS011;53236;43.666;18.444;2023-11-22T00:20:15;14.37;;;9.30;;
65461;SDS011;53236;43.666;18.444;2023-11-22T00:22:42;9.07;;;5.70;;
65461;SDS011;53236;43.666;18.444;2023-11-22T00:25:10;10.27;;;6.70;;
65461;SDS011;53236;43.666;18.444;2023-11-22T00:27:38;10.53;;;7.47;;
65461;SDS011;53236;43.666;18.444;2023-11-22T00:30:04;10.63;;;7.40;;
65461;SDS011;53236;43.666;18.444;2023-11-22T00:32:30;14.87;;;9.97;;
65461;SDS011;53236;43.666;18.444;2023-11-22T00:34:56;12.77;;;9.23;;
65461;SDS011;53236;43.666;18.444;2023-11-22T00:37:22;15.00;;;9.03;;
65461;SDS011;53236;43.666;18.444;2023-11-22T00:39:48;11.57;;;8.00;;
65461;SDS011;53236;43.666;18.444;2023-11-22T00:42:14;10.97;;;8.10;;
65461;SDS011;53236;43.666;18.444;2023-11-22T00:44:40;13.67;;;9.23;;
65461;SDS011;53236;43.666;18.444;2023-11-22T00:47:06;12.47;;;8.73;;
65461;SDS011;53236;43.666;18.444;2023-11-22T00:49:31;12.17;;;9.23;;
65461;SDS011;53236;43.666;18.444;2023-11-22T00:51:57;12.10;;;8.87;;
65461;SDS011;53236;43.666;18.444;2023-11-22T00:54:23;10.87;;;8.00;;
65461;SDS011;53236;43.666;18.444;2023-11-22T00:56:51;12.20;;;9.33;;
65461;SDS011;53236;43.666;18.444;2023-11-22T00:59:17;15.87;;;11.70;;
65461;SDS011;53236;43.666;18.444;2023-11-22T01:01:44;15.50;;;10.83;;
65461;SDS011;53236;43.666;18.444;2023-11-22T01:04:10;14.93;;;11.00;;
65461;SDS011;53236;43.666;18.444;2023-11-22T01:06:36;18.40;;;13.60;;
65461;SDS011;53236;43.666;18.444;2023-11-22T01:09:02;16.90;;;14.00;;
65461;SDS011;53236;43.666;18.444;2023-11-22T01:11:29;17.20;;;13.40;;
65461;SDS011;53236;43.666;18.444;2023-11-22T01:13:54;17.83;;;13.43;;
65461;SDS011;53236;43.666;18.444;2023-11-22T01:16:20;17.23;;;12.03;;
65461;SDS011;53236;43.666;18.444;2023-11-22T01:18:46;16.07;;;11.00;;
65461;SDS011;53236;43.666;18.444;2023-11-22T01:21:12;13.97;;;10.63;;
65461;SDS011;53236;43.666;18.444;2023-11-22T01:23:38;28.10;;;19.67;;
65461;SDS011;53236;43.666;18.444;2023-11-22T01:26:03;16.17;;;11.80;;
65461;SDS011;53236;43.666;18.444;2023-11-22T01:28:30;28.53;;;17.93;;
65461;SDS011;53236;43.666;18.444;2023-11-22T01:30:59;26.23;;;16.93;;
65461;SDS011;53236;43.666;18.444;2023-11-22T01:33:27;24.03;;;15.33;;
65461;SDS011;53236;43.666;18.444;2023-11-22T01:35:53;22.70;;;14.70;;
65461;SDS011;53236;43.666;18.444;2023-11-22T01:38:18;19.17;;;12.67;;
65461;SDS011;53236;43.666;18.444;2023-11-22T01:40:44;22.70;;;13.70;;
65461;SDS011;53236;43.666;18.444;2023-11-22T01:43:14;20.80;;;12.80;;
65461;SDS011;53236;43.666;18.444;2023-11-22T01:45:44;17.83;;;12.17;;
65461;SDS011;53236;43.666;18.444;2023-11-22T01:48:10;17.83;;;12.27;;
65461;SDS011;53236;43.666;18.444;2023-11-22T01:50:40;16.87;;;11.10;;
65461;SDS011;53236;43.666;18.444;2023-11-22T01:53:08;15.67;;;10.30;;
65461;SDS011;53236;43.666;18.444;2023-11-22T01:55:38;14.10;;;9.47;;
65461;SDS011;53236;43.666;18.444;2023-11-22T01:58:05;13.93;;;10.07;;
65461;SDS011;53236;43.666;18.444;2023-11-22T02:00:32;11.77;;;7.33;;
65461;SDS011;53236;43.666;18.444;2023-11-22T02:03:01;12.07;;;8.30;;
65461;SDS011;53236;43.666;18.444;2023-11-22T02:05:27;15.07;;;10.10;;
65461;SDS011;53236;43.666;18.444;2023-11-22T02:07:53;21.27;;;14.23;;
65461;SDS011;53236;43.666;18.444;2023-11-22T02:10:20;18.13;;;11.47;;
65461;SDS011;53236;43.666;18.444;2023-11-22T02:12:45;21.07;;;14.70;;
65461;SDS011;53236;43.666;18.444;2023-11-22T02:15:11;16.90;;;11.47;;
65461;SDS011;53236;43.666;18.444;2023-11-22T02:17:37;15.80;;;11.47;;
65461;SDS011;53236;43.666;18.444;2023-11-22T02:20:04;18.40;;;12.90;;
65461;SDS011;53236;43.666;18.444;2023-11-22T02:22:34;17.83;;;11.40;;
65461;SDS011;53236;43.666;18.444;2023-11-22T02:25:07;17.50;;;11.67;;
65461;SDS011;53236;43.666;18.444;2023-11-22T02:27:34;16.00;;;10.57;;
65461;SDS011;53236;43.666;18.444;2023-11-22T02:30:02;15.47;;;10.80;;
65461;SDS011;53236;43.666;18.444;2023-11-22T02:32:31;15.37;;;10.63;;
65461;SDS011;53236;43.666;18.444;2023-11-22T02:34:56;18.40;;;11.00;;
65461;SDS011;53236;43.666;18.444;2023-11-22T02:37:22;16.00;;;10.77;;
65461;SDS011;53236;43.666;18.444;2023-11-22T02:40:06;15.47;;;10.70;;
65461;SDS011;53236;43.666;18.444;2023-11-22T02:42:43;30.67;;;18.60;;
65461;SDS011;53236;43.666;18.444;2023-11-22T02:45:08;31.33;;;18.57;;
65461;SDS011;53236;43.666;18.444;2023-11-22T02:47:34;25.77;;;16.80;;
65461;SDS011;53236;43.666;18.444;2023-11-22T02:50:02;25.67;;;17.00;;
65461;SDS011;53236;43.666;18.444;2023-11-22T02:52:30;27.17;;;17.63;;
65461;SDS011;53236;43.666;18.444;2023-11-22T02:54:56;23.67;;;15.23;;
65461;SDS011;53236;43.666;18.444;2023-11-22T02:57:22;10.83;;;6.77;;
65461;SDS011;53236;43.666;18.444;2023-11-22T02:59:48;8.53;;;5.80;;
65461;SDS011;53236;43.666;18.444;2023-11-22T03:02:13;6.83;;;5.20;;
65461;SDS011;53236;43.666;18.444;2023-11-22T03:04:42;8.60;;;6.23;;
65461;SDS011;53236;43.666;18.444;2023-11-22T03:07:08;9.20;;;5.60;;
65461;SDS011;53236;43.666;18.444;2023-11-22T03:09:35;9.67;;;6.90;;
65461;SDS011;53236;43.666;18.444;2023-11-22T03:12:01;19.90;;;11.67;;
65461;SDS011;53236;43.666;18.444;2023-11-22T03:14:27;14.53;;;9.93;;
65461;SDS011;53236;43.666;18.444;2023-11-22T03:16:54;13.83;;;8.50;;
65461;SDS011;53236;43.666;18.444;2023-11-22T03:19:20;10.80;;;7.97;;
65461;SDS011;53236;43.666;18.444;2023-11-22T03:21:46;10.93;;;7.73;;
65461;SDS011;53236;43.666;18.444;2023-11-22T03:24:12;11.57;;;7.73;;
65461;SDS011;53236;43.666;18.444;2023-11-22T03:26:38;10.73;;;7.47;;
65461;SDS011;53236;43.666;18.444;2023-11-22T03:29:04;10.70;;;6.53;;
65461;SDS011;53236;43.666;18.444;2023-11-22T03:31:30;13.83;;;7.17;;
65461;SDS011;53236;43.666;18.444;2023-11-22T03:33:56;11.60;;;7.67;;
65461;SDS011;53236;43.666;18.444;2023-11-22T03:36:22;10.63;;;6.80;;
65461;SDS011;53236;43.666;18.444;2023-11-22T03:38:49;8.90;;;5.70;;
65461;SDS011;53236;43.666;18.444;2023-11-22T03:41:15;7.80;;;4.97;;
65461;SDS011;53236;43.666;18.444;2023-11-22T03:43:44;7.27;;;5.20;;
65461;SDS011;53236;43.666;18.444;2023-11-22T03:46:10;4.97;;;3.50;;
65461;SDS011;53236;43.666;18.444;2023-11-22T03:48:37;5.63;;;3.87;;
65461;SDS011;53236;43.666;18.444;2023-11-22T03:51:03;7.27;;;5.30;;
65461;SDS011;53236;43.666;18.444;2023-11-22T03:53:29;7.67;;;5.07;;
65461;SDS011;53236;43.666;18.444;2023-11-22T03:55:54;5.93;;;4.60;;
65461;SDS011;53236;43.666;18.444;2023-11-22T03:58:20;7.80;;;5.27;;
65461;SDS011;53236;43.666;18.444;2023-11-22T04:00:46;10.20;;;6.43;;
65461;SDS011;53236;43.666;18.444;2023-11-22T04:03:12;8.27;;;5.70;;
65461;SDS011;53236;43.666;18.444;2023-11-22T04:05:38;7.83;;;5.23;;
65461;SDS011;53236;43.666;18.444;2023-11-22T04:08:04;11.00;;;7.30;;
65461;SDS011;53236;43.666;18.444;2023-11-22T04:10:30;11.30;;;6.87;;
65461;SDS011;53236;43.666;18.444;2023-11-22T04:12:56;10.00;;;5.93;;
65461;SDS011;53236;43.666;18.444;2023-11-22T04:15:22;9.03;;;5.27;;
65461;SDS011;53236;43.666;18.444;2023-11-22T04:17:48;7.47;;;4.77;;
65461;SDS011;53236;43.666;18.444;2023-11-22T04:20:14;8.77;;;4.60;;
65461;SDS011;53236;43.666;18.444;2023-11-22T04:22:40;6.30;;;4.30;;
65461;SDS011;53236;43.666;18.444;2023-11-22T04:25:07;7.17;;;4.80;;
65461;SDS011;53236;43.666;18.444;2023-11-22T04:27:38;6.23;;;4.13;;
65461;SDS011;53236;43.666;18.444;2023-11-22T04:30:08;6.50;;;4.03;;
65461;SDS011;53236;43.666;18.444;2023-11-22T04:32:39;5.90;;;4.20;;
65461;SDS011;53236;43.666;18.444;2023-11-22T04:35:06;5.20;;;4.00;;
65461;SDS011;53236;43.666;18.444;2023-11-22T04:37:33;5.57;;;4.17;;
65461;SDS011;53236;43.666;18.444;2023-11-22T04:39:59;6.47;;;4.50;;
65461;SDS011;53236;43.666;18.444;2023-11-22T04:42:26;7.07;;;5.13;;
65461;SDS011;53236;43.666;18.444;2023-11-22T04:44:53;10.37;;;6.80;;
65461;SDS011;53236;43.666;18.444;2023-11-22T04:47:19;10.70;;;7.07;;
65461;SDS011;53236;43.666;18.444;2023-11-22T04:49:47;8.03;;;5.73;;
65461;SDS011;53236;43.666;18.444;2023-11-22T04:52:13;10.97;;;6.53;;
65461;SDS011;53236;43.666;18.444;2023-11-22T04:54:39;10.30;;;7.17;;
65461;SDS011;53236;43.666;18.444;2023-11-22T04:57:05;8.03;;;5.70;;
65461;SDS011;53236;43.666;18.444;2023-11-22T04:59:31;12.63;;;8.10;;
65461;SDS011;53236;43.666;18.444;2023-11-22T05:01:57;14.07;;;9.53;;
65461;SDS011;53236;43.666;18.444;2023-11-22T05:04:23;14.50;;;10.03;;
65461;SDS011;53236;43.666;18.444;2023-11-22T05:06:49;14.47;;;9.93;;
65461;SDS011;53236;43.666;18.444;2023-11-22T05:09:15;15.47;;;11.00;;
65461;SDS011;53236;43.666;18.444;2023-11-22T05:11:43;13.50;;;10.17;;
65461;SDS011;53236;43.666;18.444;2023-11-22T05:14:10;17.27;;;11.93;;
65461;SDS011;53236;43.666;18.444;2023-11-22T05:16:35;14.20;;;10.67;;
65461;SDS011;53236;43.666;18.444;2023-11-22T05:19:01;14.27;;;10.53;;
65461;SDS011;53236;43.666;18.444;2023-11-22T05:21:27;14.40;;;11.23;;
65461;SDS011;53236;43.666;18.444;2023-11-22T05:23:53;16.37;;;11.90;;
65461;SDS011;53236;43.666;18.444;2023-11-22T05:26:19;14.80;;;10.63;;
65461;SDS011;53236;43.666;18.444;2023-11-22T05:28:47;12.10;;;9.50;;
65461;SDS011;53236;43.666;18.444;2023-11-22T05:31:13;10.97;;;8.23;;
65461;SDS011;53236;43.666;18.444;2023-11-22T05:33:39;16.40;;;12.50;;
65461;SDS011;53236;43.666;18.444;2023-11-22T05:36:06;17.37;;;13.60;;
65461;SDS011;53236;43.666;18.444;2023-11-22T05:38:32;18.30;;;13.47;;
65461;SDS011;53236;43.666;18.444;2023-11-22T05:41:02;18.50;;;13.53;;
65461;SDS011;53236;43.666;18.444;2023-11-22T05:43:28;20.80;;;15.40;;
65461;SDS011;53236;43.666;18.444;2023-11-22T05:45:53;13.17;;;9.93;;
65461;SDS011;53236;43.666;18.444;2023-11-22T05:48:19;10.37;;;7.77;;
65461;SDS011;53236;43.666;18.444;2023-11-22T05:50:46;10.17;;;7.97;;
65461;SDS011;53236;43.666;18.444;2023-11-22T05:53:12;11.93;;;9.63;;
65461;SDS011;53236;43.666;18.444;2023-11-22T05:55:44;12.83;;;10.13;;
65461;SDS011;53236;43.666;18.444;2023-11-22T05:58:12;12.97;;;10.77;;
65461;SDS011;53236;43.666;18.444;2023-11-22T06:00:42;14.33;;;11.73;;
65461;SDS011;53236;43.666;18.444;2023-11-22T06:03:11;13.37;;;11.03;;
65461;SDS011;53236;43.666;18.444;2023-11-22T06:05:38;11.97;;;10.03;;
65461;SDS011;53236;43.666;18.444;2023-11-22T06:08:04;11.83;;;9.43;;
65461;SDS011;53236;43.666;18.444;2023-11-22T06:10:30;12.57;;;10.13;;
65461;SDS011;53236;43.666;18.444;2023-11-22T06:12:56;14.07;;;11.53;;
65461;SDS011;53236;43.666;18.444;2023-11-22T06:15:22;16.63;;;13.07;;
65461;SDS011;53236;43.666;18.444;2023-11-22T06:17:48;15.53;;;12.57;;
65461;SDS011;53236;43.666;18.444;2023-11-22T06:20:14;15.97;;;12.57;;
65461;SDS011;53236;43.666;18.444;2023-11-22T06:22:41;16.40;;;12.83;;
65461;SDS011;53236;43.666;18.444;2023-11-22T06:25:11;16.27;;;12.40;;
65461;SDS011;53236;43.666;18.444;2023-11-22T06:27:37;15.63;;;11.80;;
65461;SDS011;53236;43.666;18.444;2023-11-22T06:30:04;20.93;;;15.63;;
65461;SDS011;53236;43.666;18.444;2023-11-22T06:32:31;21.00;;;15.67;;
65461;SDS011;53236;43.666;18.444;2023-11-22T06:34:58;20.90;;;16.03;;
65461;SDS011;53236;43.666;18.444;2023-11-22T06:37:24;35.27;;;24.00;;
65461;SDS011;53236;43.666;18.444;2023-11-22T06:39:51;46.60;;;30.80;;
65461;SDS011;53236;43.666;18.444;2023-11-22T06:42:17;36.10;;;24.67;;
65461;SDS011;53236;43.666;18.444;2023-11-22T06:44:44;35.60;;;23.70;;
65461;SDS011;53236;43.666;18.444;2023-11-22T06:47:13;91.10;;;53.87;;
65461;SDS011;53236;43.666;18.444;2023-11-22T06:49:39;71.10;;;44.70;;
65461;SDS011;53236;43.666;18.444;2023-11-22T06:52:04;49.43;;;31.30;;
65461;SDS011;53236;43.666;18.444;2023-11-22T06:54:31;68.07;;;43.77;;
65461;SDS011;53236;43.666;18.444;2023-11-22T06:56:57;64.10;;;41.17;;
65461;SDS011;53236;43.666;18.444;2023-11-22T06:59:22;122.27;;;71.27;;
65461;SDS011;53236;43.666;18.444;2023-11-22T07:01:48;76.83;;;49.23;;
65461;SDS011;53236;43.666;18.444;2023-11-22T07:04:14;55.70;;;36.87;;
65461;SDS011;53236;43.666;18.444;2023-11-22T07:06:40;52.40;;;34.97;;
65461;SDS011;53236;43.666;18.444;2023-11-22T07:09:07;78.90;;;49.20;;
65461;SDS011;53236;43.666;18.444;2023-11-22T07:11:34;66.80;;;41.80;;
65461;SDS011;53236;43.666;18.444;2023-11-22T07:14:02;40.27;;;29.20;;
65461;SDS011;53236;43.666;18.444;2023-11-22T07:16:29;40.13;;;30.10;;
65461;SDS011;53236;43.666;18.444;2023-11-22T07:18:56;43.93;;;31.90;;
65461;SDS011;53236;43.666;18.444;2023-11-22T07:21:22;46.50;;;34.17;;
65461;SDS011;53236;43.666;18.444;2023-11-22T07:23:48;54.03;;;38.40;;
65461;SDS011;53236;43.666;18.444;2023-11-22T07:26:13;42.97;;;31.40;;
65461;SDS011;53236;43.666;18.444;2023-11-22T07:28:40;59.90;;;41.00;;
65461;SDS011;53236;43.666;18.444;2023-11-22T07:31:09;56.87;;;38.77;;
65461;SDS011;53236;43.666;18.444;2023-11-22T07:33:36;49.97;;;37.87;;
65461;SDS011;53236;43.666;18.444;2023-11-22T07:36:04;42.03;;;33.97;;
65461;SDS011;53236;43.666;18.444;2023-11-22T07:38:30;37.97;;;29.13;;
65461;SDS011;53236;43.666;18.444;2023-11-22T07:40:57;32.57;;;26.20;;
65461;SDS011;53236;43.666;18.444;2023-11-22T07:43:23;37.60;;;28.70;;
65461;SDS011;53236;43.666;18.444;2023-11-22T07:45:49;26.53;;;21.63;;
65461;SDS011;53236;43.666;18.444;2023-11-22T07:48:16;30.37;;;23.30;;
65461;SDS011;53236;43.666;18.444;2023-11-22T07:50:42;33.53;;;24.97;;
65461;SDS011;53236;43.666;18.444;2023-11-22T07:53:14;34.63;;;25.57;;
65461;SDS011;53236;43.666;18.444;2023-11-22T07:55:40;40.07;;;30.37;;
65461;SDS011;53236;43.666;18.444;2023-11-22T07:58:07;50.80;;;39.93;;
65461;SDS011;53236;43.666;18.444;2023-11-22T08:00:33;32.93;;;25.73;;
65461;SDS011;53236;43.666;18.444;2023-11-22T08:03:00;41.30;;;30.87;;
65461;SDS011;53236;43.666;18.444;2023-11-22T08:05:29;43.93;;;32.60;;
65461;SDS011;53236;43.666;18.444;2023-11-22T08:08:00;32.77;;;24.13;;
65461;SDS011;53236;43.666;18.444;2023-11-22T08:10:27;28.83;;;21.37;;
65461;SDS011;53236;43.666;18.444;2023-11-22T08:12:53;29.43;;;22.57;;
65461;SDS011;53236;43.666;18.444;2023-11-22T08:15:19;32.07;;;23.97;;
65461;SDS011;53236;43.666;18.444;2023-11-22T08:17:45;26.40;;;20.07;;
65461;SDS011;53236;43.666;18.444;2023-11-22T08:20:12;22.07;;;17.10;;
65461;SDS011;53236;43.666;18.444;2023-11-22T08:22:42;24.23;;;18.47;;
65461;SDS011;53236;43.666;18.444;2023-11-22T08:25:10;25.30;;;20.17;;
65461;SDS011;53236;43.666;18.444;2023-11-22T08:27:38;28.63;;;22.57;;
65461;SDS011;53236;43.666;18.444;2023-11-22T08:30:06;32.50;;;25.77;;
65461;SDS011;53236;43.666;18.444;2023-11-22T08:32:38;30.73;;;24.50;;
65461;SDS011;53236;43.666;18.444;2023-11-22T08:35:10;29.73;;;24.20;;
65461;SDS011;53236;43.666;18.444;2023-11-22T08:37:36;30.73;;;24.37;;
65461;SDS011;53236;43.666;18.444;2023-11-22T08:40:06;36.97;;;30.53;;
65461;SDS011;53236;43.666;18.444;2023-11-22T08:42:33;32.00;;;24.60;;
65461;SDS011;53236;43.666;18.444;2023-11-22T08:45:01;36.77;;;27.90;;
65461;SDS011;53236;43.666;18.444;2023-11-22T08:47:28;55.63;;;44.10;;
65461;SDS011;53236;43.666;18.444;2023-11-22T08:49:55;42.73;;;34.47;;
65461;SDS011;53236;43.666;18.444;2023-11-22T08:52:22;34.97;;;28.43;;
65461;SDS011;53236;43.666;18.444;2023-11-22T08:54:48;26.83;;;21.17;;
65461;SDS011;53236;43.666;18.444;2023-11-22T08:57:16;27.10;;;21.50;;
65461;SDS011;53236;43.666;18.444;2023-11-22T08:59:43;30.30;;;24.87;;
65461;SDS011;53236;43.666;18.444;2023-11-22T09:02:09;36.87;;;30.13;;
65461;SDS011;53236;43.666;18.444;2023-11-22T09:04:37;77.07;;;56.60;;
65461;SDS011;53236;43.666;18.444;2023-11-22T09:07:03;91.63;;;68.50;;
65461;SDS011;53236;43.666;18.444;2023-11-22T09:09:31;69.83;;;51.90;;
65461;SDS011;53236;43.666;18.444;2023-11-22T09:11:57;103.67;;;62.60;;
65461;SDS011;53236;43.666;18.444;2023-11-22T09:14:23;450.17;;;200.40;;
65461;SDS011;53236;43.666;18.444;2023-11-22T09:16:50;497.77;;;214.80;;
65461;SDS011;53236;43.666;18.444;2023-11-22T09:19:22;366.00;;;150.13;;
65461;SDS011;53236;43.666;18.444;2023-11-22T09:21:48;341.17;;;147.37;;
65461;SDS011;53236;43.666;18.444;2023-11-22T09:24:14;191.27;;;98.47;;
65461;SDS011;53236;43.666;18.444;2023-11-22T09:26:40;84.67;;;54.40;;
65461;SDS011;53236;43.666;18.444;2023-11-22T09:29:07;62.07;;;44.53;;
65461;SDS011;53236;43.666;18.444;2023-11-22T09:31:34;47.43;;;37.07;;
65461;SDS011;53236;43.666;18.444;2023-11-22T09:34:01;55.93;;;44.37;;
65461;SDS011;53236;43.666;18.444;2023-11-22T09:36:28;61.70;;;46.63;;
65461;SDS011;53236;43.666;18.444;2023-11-22T09:38:57;83.70;;;59.50;;
65461;SDS011;53236;43.666;18.444;2023-11-22T09:41:23;83.07;;;59.37;;
65461;SDS011;53236;43.666;18.444;2023-11-22T09:43:52;80.87;;;59.77;;
65461;SDS011;53236;43.666;18.444;2023-11-22T09:46:18;81.10;;;58.43;;
65461;SDS011;53236;43.666;18.444;2023-11-22T09:48:46;101.30;;;65.23;;
65461;SDS011;53236;43.666;18.444;2023-11-22T09:56:25;106.80;;;67.80;;
65461;SDS011;53236;43.666;18.444;2023-11-22T09:58:55;91.30;;;63.43;;
65461;SDS011;53236;43.666;18.444;2023-11-22T10:01:26;86.33;;;57.03;;
65461;SDS011;53236;43.666;18.444;2023-11-22T10:04:04;66.60;;;47.00;;
65461;SDS011;53236;43.666;18.444;2023-11-22T10:06:33;70.07;;;45.67;;
65461;SDS011;53236;43.666;18.444;2023-11-22T10:09:03;88.13;;;58.20;;
65461;SDS011;53236;43.666;18.444;2023-11-22T10:11:34;90.40;;;61.73;;
65461;SDS011;53236;43.666;18.444;2023-11-22T10:14:05;94.83;;;60.07;;
65461;SDS011;53236;43.666;18.444;2023-11-22T10:16:31;97.17;;;63.43;;
65461;SDS011;53236;43.666;18.444;2023-11-22T10:18:57;91.60;;;60.20;;
65461;SDS011;53236;43.666;18.444;2023-11-22T10:21:24;91.10;;;61.40;;
65461;SDS011;53236;43.666;18.444;2023-11-22T10:23:53;89.37;;;60.57;;
65461;SDS011;53236;43.666;18.444;2023-11-22T10:26:21;88.43;;;60.43;;
65461;SDS011;53236;43.666;18.444;2023-11-22T10:28:51;86.93;;;60.97;;
65461;SDS011;53236;43.666;18.444;2023-11-22T10:31:21;97.27;;;68.47;;
65461;SDS011;53236;43.666;18.444;2023-11-22T10:33:49;127.57;;;81.83;;
65461;SDS011;53236;43.666;18.444;2023-11-22T10:36:15;188.87;;;111.63;;
65461;SDS011;53236;43.666;18.444;2023-11-22T10:38:49;126.47;;;87.93;;
65461;SDS011;53236;43.666;18.444;2023-11-22T10:41:19;110.15;;;71.35;;
65461;SDS011;53236;43.666;18.444;2023-11-22T10:43:46;97.73;;;68.53;;
65461;SDS011;53236;43.666;18.444;2023-11-22T10:46:12;79.57;;;57.07;;
65461;SDS011;53236;43.666;18.444;2023-11-22T10:48:38;64.10;;;45.93;;
65461;SDS011;53236;43.666;18.444;2023-11-22T10:51:04;52.77;;;37.23;;
65461;SDS011;53236;43.666;18.444;2023-11-22T10:53:32;50.50;;;37.13;;
65461;SDS011;53236;43.666;18.444;2023-11-22T10:56:15;32.77;;;24.53;;
65461;SDS011;53236;43.666;18.444;2023-11-22T10:59:17;21.80;;;16.43;;
65461;SDS011;53236;43.666;18.444;2023-11-22T11:01:38;22.30;;;17.27;;
65461;SDS011;53236;43.666;18.444;2023-11-22T11:04:23;25.23;;;20.13;;
65461;SDS011;53236;43.666;18.444;2023-11-22T11:06:54;22.40;;;17.10;;
65461;SDS011;53236;43.666;18.444;2023-11-22T11:09:21;37.87;;;30.37;;
65461;SDS011;53236;43.666;18.444;2023-11-22T11:11:51;27.57;;;20.73;;
65461;SDS011;53236;43.666;18.444;2023-11-22T11:14:17;22.40;;;17.10;;
65461;SDS011;53236;43.666;18.444;2023-11-22T11:16:44;19.93;;;15.13;;
65461;SDS011;53236;43.666;18.444;2023-11-22T11:19:15;20.50;;;15.13;;
65461;SDS011;53236;43.666;18.444;2023-11-22T11:21:47;18.70;;;15.70;;
65461;SDS011;53236;43.666;18.444;2023-11-22T11:24:13;19.80;;;14.97;;
65461;SDS011;53236;43.666;18.444;2023-11-22T11:26:40;15.27;;;12.43;;
65461;SDS011;53236;43.666;18.444;2023-11-22T11:29:05;13.13;;;10.20;;
65461;SDS011;53236;43.666;18.444;2023-11-22T11:31:33;15.70;;;13.13;;
65461;SDS011;53236;43.666;18.444;2023-11-22T11:34:07;18.97;;;15.33;;
65461;SDS011;53236;43.666;18.444;2023-11-22T11:36:33;13.27;;;10.10;;
65461;SDS011;53236;43.666;18.444;2023-11-22T11:39:04;7.90;;;6.23;;
65461;SDS011;53236;43.666;18.444;2023-11-22T11:41:34;7.37;;;5.70;;
65461;SDS011;53236;43.666;18.444;2023-11-22T11:44:07;7.50;;;6.50;;
65461;SDS011;53236;43.666;18.444;2023-11-22T11:46:44;18.23;;;13.37;;
65461;SDS011;53236;43.666;18.444;2023-11-22T11:49:13;16.23;;;12.27;;
65461;SDS011;53236;43.666;18.444;2023-11-22T11:51:39;18.93;;;11.60;;
65461;SDS011;53236;43.666;18.444;2023-11-22T11:54:06;14.60;;;10.40;;
65461;SDS011;53236;43.666;18.444;2023-11-22T11:56:34;23.93;;;17.70;;
65461;SDS011;53236;43.666;18.444;2023-11-22T11:59:00;21.90;;;15.77;;
65461;SDS011;53236;43.666;18.444;2023-11-22T12:01:27;26.13;;;18.80;;
65461;SDS011;53236;43.666;18.444;2023-11-22T12:03:57;13.97;;;10.40;;
65461;SDS011;53236;43.666;18.444;2023-11-22T12:06:25;9.03;;;7.70;;
65461;SDS011;53236;43.666;18.444;2023-11-22T12:08:51;9.97;;;7.10;;
65461;SDS011;53236;43.666;18.444;2023-11-22T12:11:18;13.37;;;9.07;;
65461;SDS011;53236;43.666;18.444;2023-11-22T12:13:44;13.70;;;9.60;;
65461;SDS011;53236;43.666;18.444;2023-11-22T12:16:15;22.80;;;16.73;;
65461;SDS011;53236;43.666;18.444;2023-11-22T12:18:42;32.40;;;24.57;;
65461;SDS011;53236;43.666;18.444;2023-11-22T12:21:09;48.60;;;33.87;;
65461;SDS011;53236;43.666;18.444;2023-11-22T12:23:40;54.10;;;39.17;;
65461;SDS011;53236;43.666;18.444;2023-11-22T12:26:11;54.63;;;39.13;;
65461;SDS011;53236;43.666;18.444;2023-11-22T12:28:41;52.90;;;39.53;;
65461;SDS011;53236;43.666;18.444;2023-11-22T12:31:11;53.40;;;40.80;;
65461;SDS011;53236;43.666;18.444;2023-11-22T12:33:38;40.83;;;30.97;;
65461;SDS011;53236;43.666;18.444;2023-11-22T12:36:06;29.37;;;22.33;;
65461;SDS011;53236;43.666;18.444;2023-11-22T12:38:34;57.60;;;41.80;;
65461;SDS011;53236;43.666;18.444;2023-11-22T12:41:00;58.57;;;44.70;;
65461;SDS011;53236;43.666;18.444;2023-11-22T12:43:31;61.77;;;45.53;;
65461;SDS011;53236;43.666;18.444;2023-11-22T12:48:26;48.57;;;36.70;;
65461;SDS011;53236;43.666;18.444;2023-11-22T12:50:54;34.63;;;25.67;;
65461;SDS011;53236;43.666;18.444;2023-11-22T12:53:22;28.70;;;22.17;;
65461;SDS011;53236;43.666;18.444;2023-11-22T12:55:51;32.43;;;25.03;;
65461;SDS011;53236;43.666;18.444;2023-11-22T12:58:18;36.30;;;27.70;;
65461;SDS011;53236;43.666;18.444;2023-11-22T13:00:45;31.40;;;24.63;;
65461;SDS011;53236;43.666;18.444;2023-11-22T13:03:13;24.57;;;19.53;;
65461;SDS011;53236;43.666;18.444;2023-11-22T13:05:40;22.67;;;17.17;;
65461;SDS011;53236;43.666;18.444;2023-11-22T13:08:10;18.63;;;13.83;;
65461;SDS011;53236;43.666;18.444;2023-11-22T13:10:45;40.37;;;28.50;;
65461;SDS011;53236;43.666;18.444;2023-11-22T13:13:12;44.57;;;33.03;;
65461;SDS011;53236;43.666;18.444;2023-11-22T13:15:39;34.60;;;26.77;;
65461;SDS011;53236;43.666;18.444;2023-11-22T13:18:05;27.43;;;20.27;;
65461;SDS011;53236;43.666;18.444;2023-11-22T13:20:33;19.27;;;15.27;;
65461;SDS011;53236;43.666;18.444;2023-11-22T13:23:01;36.63;;;28.00;;
65461;SDS011;53236;43.666;18.444;2023-11-22T13:25:28;32.43;;;25.30;;
65461;SDS011;53236;43.666;18.444;2023-11-22T13:27:53;29.83;;;23.10;;
65461;SDS011;53236;43.666;18.444;2023-11-22T13:30:21;29.87;;;22.70;;
65461;SDS011;53236;43.666;18.444;2023-11-22T13:32:51;29.70;;;23.70;;
65461;SDS011;53236;43.666;18.444;2023-11-22T13:35:19;28.93;;;21.77;;
65461;SDS011;53236;43.666;18.444;2023-11-22T13:37:45;28.13;;;21.77;;
65461;SDS011;53236;43.666;18.444;2023-11-22T13:40:13;30.23;;;22.37;;
65461;SDS011;53236;43.666;18.444;2023-11-22T13:42:44;31.93;;;24.87;;
65461;SDS011;53236;43.666;18.444;2023-11-22T13:45:11;32.43;;;25.37;;
65461;SDS011;53236;43.666;18.444;2023-11-22T13:47:44;33.60;;;25.97;;
65461;SDS011;53236;43.666;18.444;2023-11-22T13:50:15;31.13;;;25.00;;
65461;SDS011;53236;43.666;18.444;2023-11-22T13:52:54;30.67;;;24.67;;
65461;SDS011;53236;43.666;18.444;2023-11-22T13:55:21;31.47;;;24.07;;
65461;SDS011;53236;43.666;18.444;2023-11-22T13:57:52;30.73;;;21.77;;
65461;SDS011;53236;43.666;18.444;2023-11-22T14:00:19;29.83;;;22.80;;
65461;SDS011;53236;43.666;18.444;2023-11-22T14:02:52;32.13;;;25.27;;
65461;SDS011;53236;43.666;18.444;2023-11-22T14:05:21;42.17;;;30.70;;
65461;SDS011;53236;43.666;18.444;2023-11-22T14:07:47;38.80;;;27.10;;
65461;SDS011;53236;43.666;18.444;2023-11-22T14:10:14;35.93;;;26.60;;
65461;SDS011;53236;43.666;18.444;2023-11-22T14:12:41;31.90;;;24.57;;
65461;SDS011;53236;43.666;18.444;2023-11-22T14:15:09;32.83;;;25.23;;
65461;SDS011;53236;43.666;18.444;2023-11-22T14:17:36;29.63;;;22.97;;
65461;SDS011;53236;43.666;18.444;2023-11-22T14:20:15;30.30;;;23.47;;
65461;SDS011;53236;43.666;18.444;2023-11-22T14:22:41;69.82;;;50.03;;